Time;durP1;ratioP1;P1;durP2;ratioP2;P2;SDS_P1;SDS_P2;PMS_P1;PMS_P2;Temp;Humidity;BMP_temperature;BMP_pressure;BME280_temperature;BME280_humidity;BME280_pressure;Samples;Min_cycle;Max_cycle;Signal;HPM_P1;HPM_P2
2023/05/29 00:00:45;;;;;;;6.97;3.47;;;;;;;;;;5032551;28;20120;-64
2023/05/29 00:03:12;;;;;;;7.45;4.00;;;;;;;;;;5031614;28;20489;-64
2023/05/29 00:05:39;;;;;;;7.45;3.28;;;;;;;;;;5030182;28;20043;-65
2023/05/29 00:08:06;;;;;;;7.20;3.65;;;;;;;;;;5030655;28;20037;-65
2023/05/29 00:10:33;;;;;;;6.38;3.42;;;;;;;;;;5029110;28;20041;-64
2023/05/29 00:13:00;;;;;;;5.55;3.38;;;;;;;;;;5032067;28;20045;-64
2023/05/29 00:15:27;;;;;;;7.65;3.42;;;;;;;;;;5029682;28;20835;-64
2023/05/29 00:17:54;;;;;;;6.72;3.90;;;;;;;;;;5030965;28;20061;-64
2023/05/29 00:20:21;;;;;;;7.00;3.30;;;;;;;;;;5030510;28;20046;-64
2023/05/29 00:22:48;;;;;;;11.30;3.40;;;;;;;;;;5028880;28;20049;-64
2023/05/29 00:25:15;;;;;;;15.45;3.90;;;;;;;;;;5029355;28;20034;-64
2023/05/29 00:27:42;;;;;;;6.45;3.35;;;;;;;;;;5030362;28;21725;-63
2023/05/29 00:30:09;;;;;;;7.65;3.58;;;;;;;;;;5029897;28;20044;-64
2023/05/29 00:32:35;;;;;;;7.57;3.42;;;;;;;;;;5029234;28;20137;-66
2023/05/29 00:35:02;;;;;;;5.68;3.05;;;;;;;;;;5030094;28;20822;-64
2023/05/29 00:37:29;;;;;;;5.85;3.33;;;;;;;;;;5030508;28;20048;-64
2023/05/29 00:39:56;;;;;;;5.57;3.17;;;;;;;;;;5028930;28;20052;-64
2023/05/29 00:42:23;;;;;;;6.20;3.55;;;;;;;;;;5030291;28;20506;-65
2023/05/29 00:44:49;;;;;;;6.40;3.40;;;;;;;;;;5029136;28;20045;-64
2023/05/29 00:47:16;;;;;;;8.02;3.08;;;;;;;;;;5031369;28;20045;-65
2023/05/29 00:49:43;;;;;;;8.30;3.53;;;;;;;;;;5028427;28;20115;-64
2023/05/29 00:52:10;;;;;;;5.53;2.97;;;;;;;;;;5031009;28;20037;-64
2023/05/29 00:54:37;;;;;;;6.78;3.42;;;;;;;;;;5030178;28;20037;-63
2023/05/29 00:57:05;;;;;;;6.75;3.47;;;;;;;;;;5013453;28;20120;-63
2023/05/29 00:59:33;;;;;;;6.43;3.08;;;;;;;;;;5026937;28;20152;-63
2023/05/29 01:02:01;;;;;;;5.60;3.10;;;;;;;;;;5030068;28;20707;-62
2023/05/29 01:04:28;;;;;;;6.80;3.20;;;;;;;;;;5029977;28;20045;-63
2023/05/29 01:06:56;;;;;;;6.32;3.30;;;;;;;;;;5031692;28;21000;-63
2023/05/29 01:09:22;;;;;;;4.95;2.80;;;;;;;;;;5028013;28;20045;-63
2023/05/29 01:12:02;;;;;;;8.98;3.50;;;;;;;;;;5029585;28;20091;-63
2023/05/29 01:14:35;;;;;;;5.78;3.33;;;;;;;;;;5028674;28;20054;-63
2023/05/29 01:17:40;;;;;;;6.07;3.35;;;;;;;;;;5029259;28;20045;-62
2023/05/29 01:20:21;;;;;;;5.05;3.15;;;;;;;;;;4948857;28;20047;-63
2023/05/29 01:22:53;;;;;;;7.68;4.15;;;;;;;;;;4948147;28;20043;-62
2023/05/29 01:25:20;;;;;;;;;;;;;;;;;;4997459;28;20037;-67
2023/05/29 01:27:47;;;;;;;7.63;3.20;;;;;;;;;;5028807;28;20057;-64
2023/05/29 01:30:15;;;;;;;5.68;3.35;;;;;;;;;;5023179;28;20048;-66
2023/05/29 01:32:42;;;;;;;6.00;3.35;;;;;;;;;;5023663;28;20033;-68
2023/05/29 01:35:09;;;;;;;6.15;3.28;;;;;;;;;;5030171;28;20512;-65
2023/05/29 01:37:36;;;;;;;7.13;3.55;;;;;;;;;;5019936;28;20069;-62
2023/05/29 01:40:04;;;;;;;7.55;3.65;;;;;;;;;;5027450;28;20374;-62
2023/05/29 01:42:31;;;;;;;6.45;3.50;;;;;;;;;;5027092;28;20053;-64
2023/05/29 01:44:58;;;;;;;6.72;3.72;;;;;;;;;;5030530;28;20099;-64
2023/05/29 01:47:25;;;;;;;5.72;3.15;;;;;;;;;;5029069;28;20100;-60
2023/05/29 01:49:52;;;;;;;5.80;3.10;;;;;;;;;;5030391;28;20041;-63
2023/05/29 01:52:19;;;;;;;6.45;3.75;;;;;;;;;;5029824;28;20084;-63
2023/05/29 01:54:46;;;;;;;6.82;3.97;;;;;;;;;;5030212;28;20053;-64
2023/05/29 01:57:13;;;;;;;7.00;3.60;;;;;;;;;;5029438;28;20156;-63
2023/05/29 01:59:41;;;;;;;10.07;3.63;;;;;;;;;;4994202;28;20134;-62
2023/05/29 02:02:08;;;;;;;6.50;3.53;;;;;;;;;;5029445;28;20041;-63
2023/05/29 02:04:35;;;;;;;5.85;3.17;;;;;;;;;;5029263;28;20075;-64
2023/05/29 02:07:02;;;;;;;8.07;3.63;;;;;;;;;;5012810;28;20060;-62
2023/05/29 02:09:28;;;;;;;6.10;3.35;;;;;;;;;;5028871;28;20115;-63
2023/05/29 02:11:55;;;;;;;5.95;3.35;;;;;;;;;;5027763;28;20056;-62
2023/05/29 02:14:24;;;;;;;5.82;3.25;;;;;;;;;;5029080;28;20033;-62
2023/05/29 02:16:51;;;;;;;8.45;3.53;;;;;;;;;;5032948;28;20045;-63
2023/05/29 02:19:18;;;;;;;6.82;3.60;;;;;;;;;;5013202;28;20044;-65
2023/05/29 02:21:45;;;;;;;6.47;3.70;;;;;;;;;;5014284;28;20052;-66
2023/05/29 02:24:12;;;;;;;7.63;3.30;;;;;;;;;;5031382;28;20073;-61
2023/05/29 02:26:38;;;;;;;6.00;3.42;;;;;;;;;;5031876;28;20056;-62
2023/05/29 02:29:05;;;;;;;6.50;3.35;;;;;;;;;;5033765;28;20060;-61
2023/05/29 02:31:32;;;;;;;7.93;3.22;;;;;;;;;;5031277;28;20044;-64
2023/05/29 02:33:59;;;;;;;5.47;3.13;;;;;;;;;;5031835;28;20584;-64
2023/05/29 02:36:25;;;;;;;4.75;2.70;;;;;;;;;;5030874;28;20466;-64
2023/05/29 02:38:52;;;;;;;6.50;3.55;;;;;;;;;;5034005;28;20060;-64
2023/05/29 02:41:18;;;;;;;6.60;3.22;;;;;;;;;;5032719;28;20150;-67
2023/05/29 02:43:45;;;;;;;5.40;2.90;;;;;;;;;;5032424;28;20051;-64
2023/05/29 02:46:12;;;;;;;7.45;3.13;;;;;;;;;;5033348;28;20048;-63
2023/05/29 02:48:38;;;;;;;7.55;3.50;;;;;;;;;;5034456;28;20109;-63
2023/05/29 02:51:05;;;;;;;7.80;3.20;;;;;;;;;;5032588;28;20075;-63
2023/05/29 02:53:32;;;;;;;5.63;2.85;;;;;;;;;;5034886;28;20059;-60
2023/05/29 02:55:58;;;;;;;8.57;3.53;;;;;;;;;;5035053;28;20053;-63
2023/05/29 02:58:25;;;;;;;7.13;3.50;;;;;;;;;;5032967;28;20038;-66
2023/05/29 03:00:52;;;;;;;6.07;3.42;;;;;;;;;;5030744;28;20120;-63
2023/05/29 03:03:19;;;;;;;8.52;3.42;;;;;;;;;;5034618;28;20036;-66
2023/05/29 03:05:46;;;;;;;9.23;2.95;;;;;;;;;;5034825;28;20092;-61
2023/05/29 03:08:13;;;;;;;6.55;3.05;;;;;;;;;;5016112;28;20124;-59
2023/05/29 03:10:40;;;;;;;7.75;2.97;;;;;;;;;;5033605;28;20169;-59
2023/05/29 03:13:07;;;;;;;33.13;4.00;;;;;;;;;;5033658;28;20041;-63
2023/05/29 03:15:33;;;;;;;26.45;4.53;;;;;;;;;;5015150;28;20033;-63
2023/05/29 03:18:00;;;;;;;24.55;4.07;;;;;;;;;;5031520;28;20049;-62
2023/05/29 03:20:27;;;;;;;10.98;3.17;;;;;;;;;;5032697;28;20052;-63
2023/05/29 03:22:54;;;;;;;8.75;3.15;;;;;;;;;;5028579;28;20064;-64
2023/05/29 03:25:22;;;;;;;11.30;3.58;;;;;;;;;;5033819;28;20052;-61
2023/05/29 03:27:48;;;;;;;10.10;3.60;;;;;;;;;;5030539;28;20042;-64
2023/05/29 03:30:15;;;;;;;9.38;3.47;;;;;;;;;;5030766;28;20041;-61
2023/05/29 03:32:42;;;;;;;10.85;4.07;;;;;;;;;;5030611;28;20068;-64
2023/05/29 03:35:08;;;;;;;8.88;3.17;;;;;;;;;;5030989;28;20379;-65
2023/05/29 03:37:35;;;;;;;9.30;3.63;;;;;;;;;;5030995;28;20490;-65
2023/05/29 03:40:02;;;;;;;8.70;4.05;;;;;;;;;;5031044;28;20043;-63
2023/05/29 03:42:30;;;;;;;9.40;3.90;;;;;;;;;;5001088;28;20230;-64
2023/05/29 03:44:57;;;;;;;12.52;4.00;;;;;;;;;;5031151;28;20401;-63
2023/05/29 03:47:24;;;;;;;8.73;4.13;;;;;;;;;;5031651;28;20037;-62
2023/05/29 03:49:51;;;;;;;7.57;3.75;;;;;;;;;;5033226;28;20060;-62
2023/05/29 03:52:17;;;;;;;8.77;3.95;;;;;;;;;;5030940;28;20069;-63
2023/05/29 03:54:44;;;;;;;7.80;3.90;;;;;;;;;;5031023;28;20172;-63
2023/05/29 03:57:11;;;;;;;7.07;2.97;;;;;;;;;;5033601;28;20083;-64
2023/05/29 03:59:38;;;;;;;8.20;2.72;;;;;;;;;;5033984;28;20099;-64
2023/05/29 04:02:04;;;;;;;5.45;2.40;;;;;;;;;;5031893;28;20037;-66
2023/05/29 04:04:31;;;;;;;6.65;3.00;;;;;;;;;;5032733;28;20045;-61
2023/05/29 04:06:58;;;;;;;11.00;3.38;;;;;;;;;;5033258;28;20080;-62
2023/05/29 04:09:25;;;;;;;9.02;4.20;;;;;;;;;;5032910;28;20037;-63
2023/05/29 04:11:51;;;;;;;11.15;3.85;;;;;;;;;;5030991;28;20033;-64
2023/05/29 04:14:18;;;;;;;8.73;3.42;;;;;;;;;;5014566;28;20053;-65
2023/05/29 04:16:45;;;;;;;8.20;3.33;;;;;;;;;;5031015;28;20037;-64
2023/05/29 04:19:12;;;;;;;6.95;3.00;;;;;;;;;;5012932;28;22327;-66
2023/05/29 04:21:58;;;;;;;5.57;2.97;;;;;;;;;;4987471;28;20442;-65
2023/05/29 04:24:25;;;;;;;6.78;3.60;;;;;;;;;;5019801;28;20049;-66
2023/05/29 04:26:52;;;;;;;4.82;2.60;;;;;;;;;;5023196;28;20041;-65
2023/05/29 04:29:19;;;;;;;5.28;2.80;;;;;;;;;;5022234;28;20041;-68
2023/05/29 04:31:47;;;;;;;5.53;2.80;;;;;;;;;;5022294;28;20075;-66
2023/05/29 04:34:16;;;;;;;6.20;2.40;;;;;;;;;;5020730;28;20056;-64
2023/05/29 04:36:44;;;;;;;6.32;2.85;;;;;;;;;;5023607;28;20068;-65
2023/05/29 04:39:11;;;;;;;5.22;2.10;;;;;;;;;;5022153;28;20036;-64
2023/05/29 04:41:38;;;;;;;9.05;2.97;;;;;;;;;;5021189;28;20136;-65
2023/05/29 04:44:06;;;;;;;5.43;2.60;;;;;;;;;;5021519;28;20042;-65
2023/05/29 04:46:34;;;;;;;8.52;2.80;;;;;;;;;;5022411;28;20124;-62
2023/05/29 04:49:02;;;;;;;6.88;2.90;;;;;;;;;;5024838;28;20041;-65
2023/05/29 04:51:30;;;;;;;5.95;2.60;;;;;;;;;;5023244;28;20056;-64
2023/05/29 04:54:16;;;;;;;7.93;2.72;;;;;;;;;;5002208;28;20892;-64
2023/05/29 04:56:43;;;;;;;8.20;2.70;;;;;;;;;;5001343;28;20057;-62
2023/05/29 04:59:09;;;;;;;5.45;2.42;;;;;;;;;;4996421;28;20129;-64
2023/05/29 05:01:36;;;;;;;6.28;2.78;;;;;;;;;;4981617;28;20449;-64
2023/05/29 05:04:03;;;;;;;5.10;2.53;;;;;;;;;;4982366;28;20046;-64
2023/05/29 05:06:31;;;;;;;7.10;2.80;;;;;;;;;;4974333;28;20046;-63
2023/05/29 05:08:58;;;;;;;7.20;2.33;;;;;;;;;;4983239;28;20045;-63
2023/05/29 05:11:24;;;;;;;4.85;2.50;;;;;;;;;;4982153;28;20992;-63
2023/05/29 05:13:51;;;;;;;5.15;2.40;;;;;;;;;;4983680;28;20250;-65
2023/05/29 05:16:18;;;;;;;4.60;2.22;;;;;;;;;;4982336;28;20092;-65
2023/05/29 05:18:45;;;;;;;4.70;2.35;;;;;;;;;;4983471;28;20034;-65
2023/05/29 05:21:11;;;;;;;5.63;2.70;;;;;;;;;;4983440;28;20068;-64
2023/05/29 05:23:38;;;;;;;5.40;2.42;;;;;;;;;;4981702;28;20545;-63
2023/05/29 05:26:05;;;;;;;5.75;2.65;;;;;;;;;;4981816;28;20538;-65
2023/05/29 05:28:33;;;;;;;6.65;2.25;;;;;;;;;;4982940;28;20884;-63
2023/05/29 05:31:01;;;;;;;7.38;2.35;;;;;;;;;;4990887;28;20048;-64
2023/05/29 05:33:46;;;;;;;5.78;2.60;;;;;;;;;;4964506;28;20035;-63
2023/05/29 05:36:13;;;;;;;5.10;2.47;;;;;;;;;;4966049;28;20038;-63
2023/05/29 05:38:40;;;;;;;5.90;2.97;;;;;;;;;;4965422;28;20038;-64
2023/05/29 05:41:06;;;;;;;7.85;3.13;;;;;;;;;;4964887;28;20499;-62
2023/05/29 05:43:33;;;;;;;8.77;3.38;;;;;;;;;;4965005;28;20038;-62
2023/05/29 05:46:00;;;;;;;7.00;3.50;;;;;;;;;;4965882;28;20034;-64
2023/05/29 05:48:26;;;;;;;6.32;3.53;;;;;;;;;;4940939;28;20043;-62
2023/05/29 05:50:54;;;;;;;7.07;3.05;;;;;;;;;;4944005;28;20039;-63
2023/05/29 05:53:21;;;;;;;7.47;3.58;;;;;;;;;;4942289;28;20043;-64
2023/05/29 05:55:47;;;;;;;7.00;3.58;;;;;;;;;;4945668;28;20585;-63
2023/05/29 05:58:14;;;;;;;6.55;3.08;;;;;;;;;;4943468;28;20054;-62
2023/05/29 06:00:42;;;;;;;7.85;3.85;;;;;;;;;;4942681;28;20234;-62
2023/05/29 06:03:09;;;;;;;7.85;3.58;;;;;;;;;;4943335;28;20047;-63
2023/05/29 06:05:37;;;;;;;6.75;3.72;;;;;;;;;;4958268;28;20595;-64
2023/05/29 06:08:05;;;;;;;8.68;3.95;;;;;;;;;;4966781;28;20058;-64
2023/05/29 06:10:32;;;;;;;7.88;4.40;;;;;;;;;;4966541;28;20791;-64
2023/05/29 06:12:58;;;;;;;7.53;3.65;;;;;;;;;;4965875;28;20043;-65
2023/05/29 06:15:25;;;;;;;7.90;4.15;;;;;;;;;;4959758;28;20039;-65
2023/05/29 06:17:52;;;;;;;9.32;4.15;;;;;;;;;;4968002;28;20043;-65
2023/05/29 06:20:19;;;;;;;7.30;3.75;;;;;;;;;;4966742;28;20042;-69
2023/05/29 06:22:50;;;;;;;6.32;3.58;;;;;;;;;;4966253;28;20046;-65
2023/05/29 06:25:20;;;;;;;6.75;3.58;;;;;;;;;;4982026;28;20056;-64
2023/05/29 06:27:46;;;;;;;6.43;3.45;;;;;;;;;;5028667;28;20037;-65
2023/05/29 06:30:13;;;;;;;7.10;3.40;;;;;;;;;;5018644;28;20132;-64
2023/05/29 06:32:40;;;;;;;6.35;3.10;;;;;;;;;;5027606;28;20069;-66
2023/05/29 06:35:07;;;;;;;7.90;4.05;;;;;;;;;;5028944;28;20050;-65
2023/05/29 06:37:33;;;;;;;7.15;4.00;;;;;;;;;;5021578;28;20033;-64
2023/05/29 06:40:01;;;;;;;6.45;3.67;;;;;;;;;;5021313;28;20045;-65
2023/05/29 06:42:28;;;;;;;7.20;3.47;;;;;;;;;;5028558;28;20080;-63
2023/05/29 06:44:55;;;;;;;7.97;3.53;;;;;;;;;;5030064;28;20823;-64
2023/05/29 06:47:21;;;;;;;9.63;3.80;;;;;;;;;;5021424;28;20444;-64
2023/05/29 06:49:49;;;;;;;6.60;3.33;;;;;;;;;;5028739;28;20037;-65
2023/05/29 06:52:16;;;;;;;6.75;3.47;;;;;;;;;;5029889;28;20041;-66
2023/05/29 06:54:42;;;;;;;6.95;3.88;;;;;;;;;;5024940;28;20040;-63
2023/05/29 06:57:09;;;;;;;8.02;3.35;;;;;;;;;;5029538;28;20084;-63
2023/05/29 06:59:35;;;;;;;7.22;3.67;;;;;;;;;;5021522;28;20451;-65
2023/05/29 07:02:02;;;;;;;6.68;3.40;;;;;;;;;;5028443;28;20042;-64
2023/05/29 07:04:29;;;;;;;7.82;3.50;;;;;;;;;;5029452;28;20533;-65
2023/05/29 07:06:55;;;;;;;8.38;3.28;;;;;;;;;;5015020;28;20049;-66
2023/05/29 07:09:25;;;;;;;6.40;3.47;;;;;;;;;;5025480;28;20401;-64
2023/05/29 07:11:51;;;;;;;8.15;2.95;;;;;;;;;;5032073;28;20098;-64
2023/05/29 07:14:18;;;;;;;6.22;3.45;;;;;;;;;;5033460;28;20060;-65
2023/05/29 07:16:45;;;;;;;6.05;2.90;;;;;;;;;;5031774;28;20057;-64
2023/05/29 07:19:13;;;;;;;5.80;2.88;;;;;;;;;;5033195;28;20037;-64
2023/05/29 07:21:40;;;;;;;6.35;3.15;;;;;;;;;;5031939;28;20052;-64
2023/05/29 07:24:06;;;;;;;7.80;2.72;;;;;;;;;;5032773;28;20069;-64
2023/05/29 07:26:33;;;;;;;6.13;2.63;;;;;;;;;;5026768;28;20103;-64
2023/05/29 07:29:00;;;;;;;6.03;2.90;;;;;;;;;;5032085;28;20059;-63
2023/05/29 07:31:26;;;;;;;5.20;2.40;;;;;;;;;;5030958;28;20029;-63
2023/05/29 07:33:53;;;;;;;6.78;3.15;;;;;;;;;;5033191;28;20040;-64
2023/05/29 07:36:56;;;;;;;7.20;2.92;;;;;;;;;;4983844;28;20045;-64
2023/05/29 07:39:23;;;;;;;4.68;2.30;;;;;;;;;;4961916;28;20197;-64
2023/05/29 07:41:49;;;;;;;5.30;2.53;;;;;;;;;;4983609;28;20042;-65
2023/05/29 07:44:16;;;;;;;5.13;2.65;;;;;;;;;;4982032;28;20061;-65
2023/05/29 07:46:43;;;;;;;8.23;2.67;;;;;;;;;;4982191;28;20053;-65
2023/05/29 07:49:10;;;;;;;5.75;2.75;;;;;;;;;;4980591;28;20038;-65
2023/05/29 07:51:36;;;;;;;5.00;2.50;;;;;;;;;;4961281;28;20046;-65
2023/05/29 07:54:05;;;;;;;6.55;2.88;;;;;;;;;;4983588;28;20076;-65
2023/05/29 07:56:33;;;;;;;6.53;2.97;;;;;;;;;;4982708;28;20030;-66
2023/05/29 07:59:00;;;;;;;6.03;3.00;;;;;;;;;;4984150;28;20053;-64
2023/05/29 08:01:27;;;;;;;5.88;2.63;;;;;;;;;;4982766;28;20576;-64
2023/05/29 08:03:54;;;;;;;5.35;2.83;;;;;;;;;;4978797;28;20053;-64
2023/05/29 08:06:20;;;;;;;5.40;2.63;;;;;;;;;;4946221;28;20046;-66
2023/05/29 08:08:47;;;;;;;5.68;2.85;;;;;;;;;;4974665;28;20038;-65
2023/05/29 08:11:14;;;;;;;5.28;2.60;;;;;;;;;;4982301;28;20034;-63
2023/05/29 08:13:41;;;;;;;4.97;2.65;;;;;;;;;;4994866;28;20137;-63
2023/05/29 08:16:07;;;;;;;5.05;2.40;;;;;;;;;;5025079;28;20034;-65
2023/05/29 08:18:34;;;;;;;6.00;2.45;;;;;;;;;;5028642;28;20633;-64
2023/05/29 08:21:01;;;;;;;4.53;2.28;;;;;;;;;;5028065;28;20152;-63
2023/05/29 08:23:27;;;;;;;5.30;2.58;;;;;;;;;;5029149;28;20509;-64
2023/05/29 08:25:54;;;;;;;5.32;2.40;;;;;;;;;;5031162;28;20051;-65
2023/05/29 08:28:22;;;;;;;8.88;2.55;;;;;;;;;;5022758;28;20401;-65
2023/05/29 08:30:48;;;;;;;5.18;2.42;;;;;;;;;;5023998;28;20116;-63
2023/05/29 08:33:15;;;;;;;5.00;2.47;;;;;;;;;;5028641;28;20573;-63
2023/05/29 08:35:42;;;;;;;5.63;2.85;;;;;;;;;;5028412;28;20066;-64
2023/05/29 08:38:08;;;;;;;5.40;2.42;;;;;;;;;;5021894;28;20041;-64
2023/05/29 08:40:35;;;;;;;5.00;2.55;;;;;;;;;;5012121;28;20135;-62
2023/05/29 08:43:06;;;;;;;5.30;2.53;;;;;;;;;;5030923;28;20132;-63
2023/05/29 08:45:35;;;;;;;6.65;2.67;;;;;;;;;;5030694;28;20041;-62
2023/05/29 08:48:02;;;;;;;7.40;2.70;;;;;;;;;;5012921;28;20029;-63
2023/05/29 08:50:28;;;;;;;5.55;2.90;;;;;;;;;;5027868;28;20156;-65
2023/05/29 08:52:56;;;;;;;5.63;2.83;;;;;;;;;;5019329;28;20041;-62
2023/05/29 08:55:23;;;;;;;5.40;2.75;;;;;;;;;;5028234;28;20121;-64
2023/05/29 08:57:50;;;;;;;8.70;2.80;;;;;;;;;;5029462;28;20041;-63
2023/05/29 09:00:18;;;;;;;6.38;2.92;;;;;;;;;;5029611;28;20040;-66
2023/05/29 09:02:45;;;;;;;5.68;2.50;;;;;;;;;;5026954;28;20102;-63
2023/05/29 09:05:12;;;;;;;6.63;2.88;;;;;;;;;;5023206;28;20088;-64
2023/05/29 09:07:39;;;;;;;5.82;2.85;;;;;;;;;;5010532;28;20180;-62
2023/05/29 09:10:07;;;;;;;5.97;2.70;;;;;;;;;;5029816;28;20075;-63
2023/05/29 09:12:34;;;;;;;5.00;2.45;;;;;;;;;;5030118;28;21850;-63
2023/05/29 09:15:01;;;;;;;6.35;2.80;;;;;;;;;;5029387;28;20045;-62
2023/05/29 09:17:34;;;;;;;5.53;2.83;;;;;;;;;;5027336;28;20326;-61
2023/05/29 09:20:04;;;;;;;6.53;2.50;;;;;;;;;;5029631;28;20062;-61
2023/05/29 09:22:31;;;;;;;5.70;2.72;;;;;;;;;;5028072;28;20048;-62
2023/05/29 09:24:59;;;;;;;5.82;2.85;;;;;;;;;;5029285;28;20041;-61
2023/05/29 09:27:26;;;;;;;6.50;2.92;;;;;;;;;;5029415;28;20044;-61
2023/05/29 09:29:52;;;;;;;5.43;2.50;;;;;;;;;;5030434;28;20052;-62
2023/05/29 09:32:19;;;;;;;6.70;2.58;;;;;;;;;;5028412;28;20049;-65
2023/05/29 09:34:46;;;;;;;5.57;2.70;;;;;;;;;;5023804;28;20098;-61
2023/05/29 09:37:13;;;;;;;5.40;2.20;;;;;;;;;;5028496;28;20033;-61
2023/05/29 09:39:43;;;;;;;5.13;2.38;;;;;;;;;;5027161;28;20041;-61
2023/05/29 09:42:11;;;;;;;6.55;2.90;;;;;;;;;;5021913;28;20121;-61
2023/05/29 09:44:37;;;;;;;6.63;2.80;;;;;;;;;;5026691;28;20045;-63
2023/05/29 09:47:04;;;;;;;6.13;2.53;;;;;;;;;;5028797;28;20108;-61
2023/05/29 09:49:32;;;;;;;6.32;2.67;;;;;;;;;;5027137;28;20051;-62
2023/05/29 09:51:59;;;;;;;6.28;2.55;;;;;;;;;;5030329;28;20138;-60
2023/05/29 09:54:30;;;;;;;5.35;2.50;;;;;;;;;;5030232;28;20064;-62
2023/05/29 09:57:00;;;;;;;5.53;2.85;;;;;;;;;;5031001;28;20492;-61
2023/05/29 09:59:28;;;;;;;7.75;2.63;;;;;;;;;;5010995;28;20741;-62
2023/05/29 10:02:03;;;;;;;5.30;2.63;;;;;;;;;;5030135;28;20041;-62
2023/05/29 10:04:33;;;;;;;5.10;2.83;;;;;;;;;;5021833;28;21503;-64
2023/05/29 10:07:26;;;;;;;6.13;2.92;;;;;;;;;;4981731;28;20069;-63
2023/05/29 10:09:55;;;;;;;6.07;2.80;;;;;;;;;;4981431;28;20045;-62
2023/05/29 10:12:22;;;;;;;5.25;2.70;;;;;;;;;;4981986;28;20062;-63
2023/05/29 10:14:55;;;;;;;7.28;2.85;;;;;;;;;;4960217;28;20066;-63
2023/05/29 10:17:24;;;;;;;7.40;2.78;;;;;;;;;;4981326;28;20046;-63
2023/05/29 10:19:51;;;;;;;7.88;2.70;;;;;;;;;;4980849;28;20116;-62
2023/05/29 10:22:22;;;;;;;5.43;2.75;;;;;;;;;;4974618;28;20041;-66
2023/05/29 10:25:10;;;;;;;6.05;2.63;;;;;;;;;;4956134;28;20525;-62
2023/05/29 10:27:37;;;;;;;7.47;2.65;;;;;;;;;;4955853;28;20050;-63
2023/05/29 10:30:08;;;;;;;5.93;2.90;;;;;;;;;;4957406;28;20089;-62
2023/05/29 10:32:57;;;;;;;7.30;2.60;;;;;;;;;;4956588;28;20431;-65
2023/05/29 10:35:45;;;;;;;8.15;2.97;;;;;;;;;;4955780;28;20043;-64
2023/05/29 10:38:15;;;;;;;6.57;3.00;;;;;;;;;;4944033;28;20055;-63
2023/05/29 10:40:46;;;;;;;5.22;2.55;;;;;;;;;;4959690;28;20054;-61
2023/05/29 10:43:45;;;;;;;7.35;2.90;;;;;;;;;;4961325;28;20088;-67
2023/05/29 10:46:11;;;;;;;5.68;2.95;;;;;;;;;;4984714;28;20403;-62
2023/05/29 10:48:41;;;;;;;7.22;3.10;;;;;;;;;;5005916;28;20037;-63
2023/05/29 10:51:08;;;;;;;6.97;3.00;;;;;;;;;;5004527;28;20037;-65
2023/05/29 10:53:40;;;;;;;6.43;3.35;;;;;;;;;;4995445;28;20041;-63
2023/05/29 10:56:10;;;;;;;6.20;3.05;;;;;;;;;;5005495;28;20988;-62
2023/05/29 10:58:57;;;;;;;10.20;3.50;;;;;;;;;;5004505;28;20046;-62
2023/05/29 11:01:27;;;;;;;5.97;3.17;;;;;;;;;;4977747;28;20098;-61
2023/05/29 11:04:12;;;;;;;7.85;3.38;;;;;;;;;;5011332;28;20140;-63
2023/05/29 11:06:39;;;;;;;7.80;2.90;;;;;;;;;;5029279;28;20049;-61
2023/05/29 11:09:09;;;;;;;7.90;3.17;;;;;;;;;;5015559;28;20045;-64
2023/05/29 11:11:38;;;;;;;6.90;3.33;;;;;;;;;;5030216;28;20099;-64
2023/05/29 11:14:06;;;;;;;15.55;4.18;;;;;;;;;;5029524;28;20136;-66
2023/05/29 11:16:32;;;;;;;7.75;3.65;;;;;;;;;;5015806;28;20132;-62
2023/05/29 11:19:00;;;;;;;10.68;3.65;;;;;;;;;;5014536;28;20037;-63
2023/05/29 11:21:31;;;;;;;10.60;4.10;;;;;;;;;;5029157;28;20741;-62
2023/05/29 11:24:03;;;;;;;7.20;4.10;;;;;;;;;;5029509;28;20052;-63
2023/05/29 11:26:30;;;;;;;7.90;4.10;;;;;;;;;;5017793;28;20048;-63
2023/05/29 11:29:16;;;;;;;12.73;4.35;;;;;;;;;;5026082;28;20502;-63
2023/05/29 11:31:43;;;;;;;9.10;4.78;;;;;;;;;;5028317;28;20056;-64
2023/05/29 11:34:15;;;;;;;9.60;4.32;;;;;;;;;;5029891;28;20836;-64
2023/05/29 11:36:43;;;;;;;8.95;4.43;;;;;;;;;;5017418;28;20046;-62
2023/05/29 11:39:10;;;;;;;13.63;4.63;;;;;;;;;;5012605;28;20132;-64
2023/05/29 11:41:38;;;;;;;11.82;4.95;;;;;;;;;;5009614;28;20040;-61
2023/05/29 11:44:05;;;;;;;10.30;4.90;;;;;;;;;;5011588;28;20498;-62
2023/05/29 11:46:32;;;;;;;10.68;4.70;;;;;;;;;;5022739;28;20053;-62
2023/05/29 11:49:00;;;;;;;16.15;5.55;;;;;;;;;;5011187;28;20095;-63
2023/05/29 11:51:27;;;;;;;11.13;5.60;;;;;;;;;;5010073;28;20038;-64
2023/05/29 11:53:58;;;;;;;13.45;5.07;;;;;;;;;;5012571;28;20104;-63
2023/05/29 11:56:28;;;;;;;12.20;5.30;;;;;;;;;;5011535;28;20073;-61
2023/05/29 11:58:56;;;;;;;12.85;5.07;;;;;;;;;;5011267;28;20045;-64
2023/05/29 12:01:24;;;;;;;10.38;5.47;;;;;;;;;;5011965;28;20382;-62
2023/05/29 12:03:51;;;;;;;10.25;5.35;;;;;;;;;;5014388;28;20038;-60
2023/05/29 12:06:32;;;;;;;9.75;5.07;;;;;;;;;;5011902;28;20038;-60
2023/05/29 12:08:58;;;;;;;11.77;5.93;;;;;;;;;;5012331;28;20329;-60
2023/05/29 12:11:25;;;;;;;11.45;5.88;;;;;;;;;;5011716;28;20041;-62
2023/05/29 12:14:02;;;;;;;13.68;5.50;;;;;;;;;;5022902;28;21687;-60
2023/05/29 12:16:30;;;;;;;11.52;6.00;;;;;;;;;;5031667;28;20132;-60
2023/05/29 12:18:57;;;;;;;12.38;8.50;;;;;;;;;;5033644;28;20037;-63
2023/05/29 12:21:26;;;;;;;13.02;6.60;;;;;;;;;;5034237;28;20045;-67
2023/05/29 12:23:55;;;;;;;10.55;5.97;;;;;;;;;;5030521;28;20049;-60
2023/05/29 12:26:25;;;;;;;13.80;6.13;;;;;;;;;;5031136;28;20176;-60
2023/05/29 12:28:52;;;;;;;13.13;5.57;;;;;;;;;;5032126;28;20086;-61
2023/05/29 12:31:28;;;;;;;11.88;6.03;;;;;;;;;;5030248;28;20056;-65
2023/05/29 12:33:59;;;;;;;12.00;5.50;;;;;;;;;;5027024;28;20868;-61
2023/05/29 12:36:26;;;;;;;11.77;5.38;;;;;;;;;;5028693;28;20157;-60
2023/05/29 12:38:53;;;;;;;11.38;6.00;;;;;;;;;;5032916;28;20029;-61
2023/05/29 12:41:26;;;;;;;12.18;5.65;;;;;;;;;;5033206;28;20437;-61
2023/05/29 12:43:59;;;;;;;10.38;5.55;;;;;;;;;;5031228;28;20401;-64
2023/05/29 12:46:25;;;;;;;;;;;;;;;;;;5030917;28;20041;-63
2023/05/29 12:48:56;;;;;;;12.82;5.53;;;;;;;;;;5032929;28;19921;-60
2023/05/29 12:51:26;;;;;;;13.00;5.68;;;;;;;;;;5031689;28;20041;-61
2023/05/29 12:53:54;;;;;;;12.48;5.22;;;;;;;;;;5031623;28;20083;-61
2023/05/29 12:56:22;;;;;;;9.07;5.82;;;;;;;;;;5031519;28;20120;-65
2023/05/29 12:58:49;;;;;;;12.93;5.47;;;;;;;;;;5028952;28;20628;-61
2023/05/29 13:01:16;;;;;;;10.40;5.07;;;;;;;;;;5029666;28;20041;-62
2023/05/29 13:03:43;;;;;;;10.43;5.35;;;;;;;;;;5027088;28;20049;-63
2023/05/29 13:06:10;;;;;;;15.20;5.57;;;;;;;;;;5029493;28;20719;-63
2023/05/29 13:08:37;;;;;;;10.50;5.28;;;;;;;;;;5029515;28;20036;-59
2023/05/29 13:11:04;;;;;;;12.32;5.00;;;;;;;;;;5025184;28;20029;-62
2023/05/29 13:13:30;;;;;;;11.23;5.70;;;;;;;;;;5029676;28;20149;-59
2023/05/29 13:15:57;;;;;;;10.32;5.80;;;;;;;;;;5023610;28;20040;-62
2023/05/29 13:18:24;;;;;;;9.30;5.50;;;;;;;;;;5030874;28;20171;-63
2023/05/29 13:20:50;;;;;;;10.60;5.07;;;;;;;;;;5028078;28;20040;-61
2023/05/29 13:23:17;;;;;;;10.18;5.13;;;;;;;;;;5030001;28;20126;-60
2023/05/29 13:25:45;;;;;;;12.73;5.63;;;;;;;;;;5011550;28;20093;-62
2023/05/29 13:28:12;;;;;;;8.60;5.18;;;;;;;;;;5030846;28;20130;-63
2023/05/29 13:30:39;;;;;;;9.10;5.30;;;;;;;;;;5011649;28;20155;-61
2023/05/29 13:33:05;;;;;;;11.25;4.97;;;;;;;;;;5023304;28;20060;-62
2023/05/29 13:35:32;;;;;;;10.45;4.97;;;;;;;;;;5028429;28;20086;-61
2023/05/29 13:37:59;;;;;;;9.68;5.47;;;;;;;;;;5029087;28;20052;-63
2023/05/29 13:40:25;;;;;;;9.57;5.15;;;;;;;;;;5010681;28;20041;-62
2023/05/29 13:42:52;;;;;;;9.85;4.95;;;;;;;;;;5029741;28;20042;-61
2023/05/29 13:45:19;;;;;;;9.10;5.28;;;;;;;;;;5030181;28;20069;-60
2023/05/29 13:47:45;;;;;;;9.73;4.78;;;;;;;;;;5010736;28;20374;-59
2023/05/29 13:50:12;;;;;;;11.10;5.15;;;;;;;;;;5030154;28;20037;-63
2023/05/29 13:52:39;;;;;;;9.57;4.93;;;;;;;;;;5028613;28;20466;-64
2023/05/29 13:55:08;;;;;;;11.93;4.75;;;;;;;;;;5027987;28;20462;-64
2023/05/29 13:57:37;;;;;;;13.02;4.65;;;;;;;;;;5025671;28;20156;-64
2023/05/29 14:00:05;;;;;;;10.15;4.57;;;;;;;;;;5029262;28;20123;-65
2023/05/29 14:02:32;;;;;;;6.40;4.15;;;;;;;;;;5029332;28;20075;-65
2023/05/29 14:04:58;;;;;;;9.27;4.75;;;;;;;;;;5032041;28;20073;-65
2023/05/29 14:07:25;;;;;;;7.00;4.18;;;;;;;;;;5029323;28;20065;-64
2023/05/29 14:09:52;;;;;;;9.18;4.28;;;;;;;;;;5028693;28;20036;-64
2023/05/29 14:12:18;;;;;;;10.63;4.30;;;;;;;;;;5010335;28;20121;-65
2023/05/29 14:14:45;;;;;;;7.65;4.03;;;;;;;;;;5000270;28;20053;-64
2023/05/29 14:17:12;;;;;;;8.35;4.10;;;;;;;;;;5027787;28;20393;-63
2023/05/29 14:19:39;;;;;;;11.02;4.60;;;;;;;;;;5022980;28;20141;-67
2023/05/29 14:22:06;;;;;;;9.40;4.60;;;;;;;;;;5006657;28;20048;-64
2023/05/29 14:24:32;;;;;;;9.55;4.32;;;;;;;;;;5024736;28;20043;-65
2023/05/29 14:26:59;;;;;;;7.93;4.10;;;;;;;;;;5029150;28;20041;-65
2023/05/29 14:29:26;;;;;;;8.18;4.15;;;;;;;;;;5028982;28;20036;-65
2023/05/29 14:31:53;;;;;;;7.95;3.83;;;;;;;;;;5021536;28;20041;-63
2023/05/29 14:34:19;;;;;;;8.95;4.07;;;;;;;;;;5026834;28;20130;-64
2023/05/29 14:36:46;;;;;;;7.85;3.95;;;;;;;;;;5028284;28;20075;-65
2023/05/29 14:39:12;;;;;;;7.85;3.75;;;;;;;;;;5023763;28;20058;-63
2023/05/29 14:41:39;;;;;;;7.00;3.33;;;;;;;;;;5026947;28;20132;-65
2023/05/29 14:44:06;;;;;;;6.82;3.30;;;;;;;;;;5027885;28;20092;-66
2023/05/29 14:46:32;;;;;;;6.55;3.45;;;;;;;;;;5029510;28;20124;-63